Sidecar Motocross World Championship

Race 1

Rang N Rider Nation FMN Brand Laps FinishTime Gap Speed BestLap InLap Pts
1 82 BAX Etienne/STUPELIS Kaspars NED/LAT KNMV/LaMSF WSP Zabel 19 34:53.695 19 Laps 52.92 01:54.130 2 25.0
2 5 HERMANS Koen/MUSSET Nicolas NED/FRA KNMV/FFM WSP Zabel 19 34:58.095 00:04.400 52.81 01:53.655 11 22.0
3 9 VANLUCHENE Marvin/VAN DEN BOGAART Ben BEL/NED FMB/KNMV VMC Zabel 19 35:11.161 00:17.466 52.48 01:54.211 7 20.0
4 4 BROWN Stuart/MILLARD Joe GBR/GBR ACU/ACU WSP Husqvarna 19 35:24.554 00:30.859 52.15 01:55.039 8 18.0
5 10 VELDMAN Julian/JANSSENS Glenn NED/BEL KNMV/AMF WHT Husqvarna 19 35:31.489 00:37.794 51.98 01:56.184 5 16.0
6 111 WILLEMSEN Daniel/BAX Robbie NED/NED KNMV/KNMV WSP Zabel 19 35:39.000 00:45.305 51.80 01:52.752 2 15.0
7 2 GIRAUD Valentin/BADAIRE Johnny FRA/FRA FFM/FFM WHT Husqvarna 19 35:55.104 01:01.409 51.41 01:55.526 13 14.0
8 12 VAN WERVEN Gert/MANS Jens NED/BEL KNMV/AMF WSP TM 19 36:23.791 01:30.096 50.74 01:59.083 4 13.0
9 15 VARIK Kert/DAIDERS Lauris EST/LAT EMF/LaMSF WSP Husqvarna 19 36:28.144 01:34.449 50.64 01:57.008 10 12.0
10 85 DIERCKENS Arne/ROSTINGT Luc BEL/FRA FMB/FFM WSP Zabel 19 36:29.593 01:35.898 50.60 01:58.592 3 11.0
11 30 WEISS Benjamin/SCHNEIDER Patrick AUT/AUT AMF/AMF VMC Zabel 19 36:31.547 01:37.852 50.56 01:59.189 19 10.0
12 19 SANTERMANS Kristof/BELECKAS Konstantinas BEL/LTU FMB/FMB WSP Zabel 19 36:34.283 01:40.588 50.49 01:59.213 5 9.0
13 101 KOLENCIK Petr/HEJHAL Matej CZE/CZE ACCR/ACCR WSP Zabel 19 36:35.969 01:42.274 50.45 01:58.925 13 8.0
14 7 CERMAK Tomas/CERMAK Ondrej CZE/CZE ACCR/ACCR WSP Mega 19 36:37.163 01:43.468 50.43 01:56.555 9 7.0
15 11 SANDERS Davy/HALLER Andres BEL/GER FMB/DMSB WSP Zabel 19 36:44.845 01:51.150 50.25 01:59.300 5 6.0
16 54 HROCH Pavel/HROCH Martin CZE/CZE ACCR/ACCR WSP Zabel 19 36:47.070 01:53.375 50.20 01:59.675 5 5.0
17 17 CUCHE Christophe/FORSTER Stefan SUI/GER FMS/DMSB VMC KTM 19 37:01.973 02:08.278 49.86 01:59.030 5 4.0
18 14 KUNNAS Riku/KUNNAS Lari FIN/FIN SML/SML WSP KTM 18 34:59.014 18 Laps 50.01 01:59.265 4 3.0
19 8 WILKINSON Brett/HUMPHREY Ryan GBR/GBR ACU/ACU WSP Zabel 18 35:04.163 00:05.149 49.88 01:58.236 9 2.0
20 49 REIMANN Joachim/REIMANN Phillip GER/GER DMSB/DMSB WSP Zabel 18 35:08.224 00:09.210 49.79 02:01.171 5 1.0
21 26 VEJCHODA Tomas/ZATLOUKAL Miroslav CZE/CZE ACCR/ACCR WSP Zabel 18 35:08.877 00:09.863 49.77 02:00.589 11
22 48 BOUKAL Jan/BOUKAL Pavel CZE/CZE ACCR/ACCR WSP Zabel 18 35:13.659 00:14.645 49.66 02:00.568 9
23 35 VRATNY Martin/URES Jiri CZE/CZE ACCR/ACCR WSP Husqvarna 18 36:43.204 01:44.190 47.64 02:01.586 2
24 41 VARIAKOJIS Liutauras/PAIPALS Janis LIT/LAT LMSF/LMSF WSP Husqvarna 17 35:12.534 17 Laps 46.93 02:07.604 3
25 777 GLUSCHENKO Artur/GLUSCHENKO Elisey UKR/UKR FMU/FMU EML Zabel 17 35:13.494 00:00.960 46.90 02:07.805 6
26 69 HANSAR Joosep/PEEVER Arno EST/EST EMF/EMF VMC KTM 17 36:04.868 00:52.334 45.79 02:07.980 5
27 81 KISIL Dmytro/PISKUNOV Oleksandr UKR/UKR FMU/FMU WSP Zabel 15 35:18.938 15 Laps 41.28 02:09.124 3
28 61 PEC Ladislav/PEC Antonin CZE/CZE ACCR/ACCR WSP MEGA 14 35:28.458 14 Laps 38.36 02:06.408 3
29 271 BALTUSIS Tomas/NATKA Tadas LIT/LIT LMSF/LMSF WSP Husqvarna 7 13:14.057 7 Laps 51.41 02:06.437 4

.

Best Lap: 111 WILLEMSEN Daniel/BAX Robbie KNMV/KNMV in 01:52.752 at 51.724 Km/H

Orion Transponder - www.dsvt.com Results on www.uatiming.com.ua